Time;durP1;ratioP1;P1;durP2;ratioP2;P2;SDS_P1;SDS_P2;PMS_P1;PMS_P2;Temp;Humidity;BMP_temperature;BMP_pressure;BME280_temperature;BME280_humidity;BME280_pressure;Samples;Min_cycle;Max_cycle;Signal;HPM_P1;HPM_P2
2022/11/17 00:03:26;;;;;;;21.80;15.80;;;;;;;5.09;100.00;99193.28;3004334;76;21079;-68
2022/11/17 00:07:28;;;;;;;20.88;15.98;;;;;;;5.08;100.00;99188.50;3023039;77;21011;-70
2022/11/17 00:14:31;;;;;;;21.85;17.70;;;;;;;5.07;100.00;99200.00;3039747;77;20985;-69
2022/11/17 00:15:35;;;;;;;20.90;17.87;;;;;;;5.09;100.00;99194.59;3035660;76;20925;-70
2022/11/17 00:23:57;;;;;;;26.73;20.12;;;;;;;5.13;100.00;99188.16;2994292;77;21029;-69
2022/11/17 00:27:58;;;;;;;24.12;17.48;;;;;;;5.13;100.00;99181.56;2989759;77;20963;-68
2022/11/17 00:36:23;;;;;;;26.48;17.25;;;;;;;5.10;100.00;99192.32;3019952;77;20991;-67
2022/11/17 00:40:32;;;;;;;20.95;14.90;;;;;;;5.05;100.00;99186.10;3025321;76;22280;-68
2022/11/17 00:44:33;;;;;;;26.33;18.35;;;;;;;5.02;100.00;99189.44;2955821;76;21054;-67
2022/11/17 00:48:35;;;;;;;27.17;20.23;;;;;;;5.04;100.00;99183.57;2999809;78;20975;-67
2022/11/17 00:52:36;;;;;;;20.68;14.78;;;;;;;5.08;100.00;99182.38;2988740;78;20953;-67
2022/11/17 00:56:39;;;;;;;26.57;18.25;;;;;;;5.05;100.00;99186.56;3013518;77;21015;-67
2022/11/17 01:00:41;;;;;;;18.45;14.05;;;;;;;5.02;100.00;99188.98;3011080;77;20979;-66
2022/11/17 01:04:42;;;;;;;19.40;15.43;;;;;;;4.98;100.00;99186.19;3017876;78;21018;-67
2022/11/17 01:08:44;;;;;;;19.73;14.63;;;;;;;5.01;100.00;99179.36;2883673;80;21012;-66
2022/11/17 01:12:46;;;;;;;22.48;15.50;;;;;;;4.98;100.00;99180.45;2991798;77;21006;-66
2022/11/17 01:16:47;;;;;;;18.25;13.38;;;;;;;4.98;100.00;99176.97;2998229;78;21015;-66
2022/11/17 01:20:49;;;;;;;16.90;13.85;;;;;;;4.96;100.00;99172.30;2986272;78;20979;-66
2022/11/17 01:25:17;;;;;;;18.12;13.65;;;;;;;4.94;100.00;99180.34;3070358;76;20991;-66
2022/11/17 01:29:26;;;;;;;17.57;13.20;;;;;;;4.94;100.00;99175.06;3034689;77;20969;-66
2022/11/17 01:33:28;;;;;;;14.15;12.63;;;;;;;4.96;100.00;99171.83;3031729;77;20952;-65
2022/11/17 01:37:30;;;;;;;14.33;9.83;;;;;;;4.95;100.00;99168.84;2937115;77;21023;-65
2022/11/17 01:41:32;;;;;;;14.63;10.38;;;;;;;4.95;100.00;99169.30;3007493;78;21024;-65
2022/11/17 01:45:33;;;;;;;12.85;9.15;;;;;;;4.96;100.00;99160.44;3030221;77;21046;-66
2022/11/17 01:49:35;;;;;;;12.05;10.80;;;;;;;4.90;100.00;99150.38;2968535;78;21003;-66
2022/11/17 01:53:38;;;;;;;13.62;10.32;;;;;;;4.90;100.00;99145.92;2968247;78;21464;-65
2022/11/17 01:57:48;;;;;;;11.22;9.35;;;;;;;4.92;100.00;99149.31;3069729;76;20956;-65
2022/11/17 02:01:54;;;;;;;15.05;10.58;;;;;;;4.91;100.00;99148.92;3060026;76;20968;-65
2022/11/17 02:06:20;;;;;;;15.48;10.18;;;;;;;4.87;100.00;99152.75;3045891;77;21043;-65
2022/11/17 02:10:22;;;;;;;14.63;10.40;;;;;;;4.86;100.00;99161.61;3020121;77;21032;-65
2022/11/17 02:14:24;;;;;;;12.75;11.38;;;;;;;4.91;100.00;99156.83;3000955;78;21487;-64
2022/11/17 02:18:31;;;;;;;12.47;9.60;;;;;;;4.92;100.00;99158.53;3025083;77;20983;-65
2022/11/17 02:23:00;;;;;;;11.55;10.25;;;;;;;4.92;100.00;99153.27;2999575;77;21788;-67
2022/11/17 02:27:24;;;;;;;14.58;11.20;;;;;;;4.92;100.00;99151.95;2975011;78;21039;-65
2022/11/17 02:31:54;;;;;;;15.60;12.95;;;;;;;4.90;100.00;99145.10;3011017;78;21027;-65
2022/11/17 02:36:10;;;;;;;15.78;12.23;;;;;;;4.92;100.00;99146.67;2971481;79;20987;-65
2022/11/17 02:40:22;;;;;;;13.27;10.53;;;;;;;4.89;100.00;99140.30;2973662;78;21043;-64
2022/11/17 02:44:51;;;;;;;16.82;10.82;;;;;;;4.88;100.00;99135.98;2995226;78;21011;-65
2022/11/17 02:49:04;;;;;;;12.47;10.15;;;;;;;4.93;100.00;99140.45;2969772;79;21046;-65
2022/11/17 02:53:05;;;;;;;14.30;9.98;;;;;;;4.98;100.00;99135.66;2961273;79;21019;-65
2022/11/17 02:57:38;;;;;;;15.10;11.18;;;;;;;4.96;100.00;99137.57;2942779;78;20987;-65
2022/11/17 03:02:07;;;;;;;12.35;10.45;;;;;;;4.99;100.00;99134.69;2913357;79;21092;-65
2022/11/17 03:06:49;;;;;;;17.20;12.07;;;;;;;5.03;100.00;99131.35;2984788;78;20955;-65
2022/11/17 03:11:07;;;;;;;18.15;11.60;;;;;;;5.03;100.00;99125.23;2958189;77;21039;-65
2022/11/17 03:15:50;;;;;;;15.53;12.78;;;;;;;5.05;100.00;99136.48;3003884;77;20956;-65
2022/11/17 03:20:05;;;;;;;15.00;12.63;;;;;;;5.10;100.00;99141.77;3004270;78;20999;-64
2022/11/17 03:24:29;;;;;;;15.50;12.15;;;;;;;5.14;100.00;99139.74;3005244;78;20959;-65
2022/11/17 03:28:31;;;;;;;21.75;14.50;;;;;;;5.18;100.00;99137.22;3006815;78;20948;-65
2022/11/17 03:32:46;;;;;;;19.12;12.18;;;;;;;5.20;100.00;99140.58;3004944;78;20967;-65
2022/11/17 03:36:52;;;;;;;15.55;11.65;;;;;;;5.19;100.00;99143.31;2992312;77;21157;-64
2022/11/17 03:40:57;;;;;;;19.42;13.45;;;;;;;5.22;100.00;99142.61;2910317;79;21792;-65
2022/11/17 03:45:16;;;;;;;14.98;13.00;;;;;;;5.23;100.00;99148.24;2922052;79;21023;-65
2022/11/17 03:49:37;;;;;;;14.18;12.05;;;;;;;5.25;100.00;99137.09;2968885;78;21489;-64
2022/11/17 03:54:03;;;;;;;16.23;13.03;;;;;;;5.25;100.00;99141.05;2990301;76;21003;-64
2022/11/17 03:58:10;;;;;;;12.88;10.95;;;;;;;5.27;100.00;99140.94;2953120;78;21034;-65
2022/11/17 04:02:19;;;;;;;15.05;11.55;;;;;;;5.23;100.00;99129.78;2982666;78;20955;-65
2022/11/17 04:06:21;;;;;;;17.40;11.25;;;;;;;5.20;100.00;99136.62;2946348;78;20980;-65
2022/11/17 04:10:25;;;;;;;14.93;11.60;;;;;;;5.17;100.00;99136.02;2994004;77;20973;-65
2022/11/17 04:18:46;;;;;;;15.30;10.82;;;;;;;5.16;100.00;99131.23;2980742;77;21046;-65
2022/11/17 04:23:05;;;;;;;20.77;13.68;;;;;;;5.15;100.00;99130.38;2930842;78;20963;-65
2022/11/17 04:31:24;;;;;;;14.05;9.90;;;;;;;5.12;100.00;99135.89;2992025;77;20941;-65
2022/11/17 04:35:26;;;;;;;17.23;11.95;;;;;;;5.13;100.00;99134.11;2916572;77;20922;-65
2022/11/17 04:39:37;;;;;;;17.30;12.05;;;;;;;5.14;100.00;99131.83;3012353;77;21647;-65
2022/11/17 04:43:38;;;;;;;18.57;14.50;;;;;;;5.11;100.00;99121.50;2905654;79;20999;-66
2022/11/17 04:47:47;;;;;;;16.52;13.20;;;;;;;5.09;100.00;99119.47;2909843;80;21023;-66
2022/11/17 04:51:49;;;;;;;21.17;16.32;;;;;;;5.10;100.00;99117.19;2984630;77;20999;-65
2022/11/17 04:55:50;;;;;;;21.70;15.55;;;;;;;5.08;100.00;99118.64;3005073;76;21031;-65
2022/11/17 04:59:52;;;;;;;20.80;15.98;;;;;;;5.08;100.00;99116.47;2984738;76;21000;-65
2022/11/17 05:04:00;;;;;;;25.55;16.60;;;;;;;5.12;100.00;99129.80;3022478;76;21002;-66
2022/11/17 05:08:01;;;;;;;23.90;16.35;;;;;;;5.18;100.00;99135.91;3038297;76;21003;-65
2022/11/17 05:21:10;;;;;;;24.30;13.53;;;;;;;5.11;100.00;99136.00;3009670;77;20975;-66
2022/11/17 05:25:11;;;;;;;19.87;15.15;;;;;;;5.04;100.00;99135.66;3023740;77;20960;-66
2022/11/17 05:29:15;;;;;;;39.58;16.15;;;;;;;5.09;100.00;99131.33;2983702;77;20991;-66
2022/11/17 05:33:16;;;;;;;25.92;17.05;;;;;;;5.07;100.00;99135.89;3028324;77;20940;-65
2022/11/17 05:37:18;;;;;;;26.23;18.50;;;;;;;5.12;100.00;99128.48;2972279;77;20999;-66
2022/11/17 05:41:20;;;;;;;28.40;18.30;;;;;;;5.11;100.00;99129.41;2996578;77;21003;-66
2022/11/17 05:45:21;;;;;;;24.90;17.57;;;;;;;5.11;100.00;99137.32;3024066;77;20945;-66
2022/11/17 05:49:23;;;;;;;23.62;16.75;;;;;;;5.14;100.00;99127.38;3005670;77;21823;-66
2022/11/17 05:53:25;;;;;;;23.47;16.85;;;;;;;5.14;100.00;99122.61;3006364;77;20944;-66
2022/11/17 05:57:30;;;;;;;28.23;18.32;;;;;;;5.14;100.00;99131.83;3001258;77;20972;-65
2022/11/17 06:01:41;;;;;;;24.30;18.17;;;;;;;5.15;100.00;99124.28;3023299;77;21019;-65
2022/11/17 06:05:43;;;;;;;21.45;16.12;;;;;;;5.16;100.00;99125.96;3040379;77;20957;-65
2022/11/17 06:09:45;;;;;;;22.52;16.48;;;;;;;5.15;100.00;99127.74;3032988;77;21011;-65
2022/11/17 06:13:47;;;;;;;20.37;16.50;;;;;;;5.17;100.00;99132.91;3059231;76;21034;-65
2022/11/17 06:18:04;;;;;;;22.80;15.60;;;;;;;5.18;100.00;99134.59;2988496;77;21779;-66
2022/11/17 06:22:06;;;;;;;26.65;14.28;;;;;;;5.15;100.00;99133.02;2961597;76;21003;-65
2022/11/17 06:26:09;;;;;;;19.00;15.00;;;;;;;5.15;100.00;99135.66;3056923;76;20987;-66
2022/11/17 06:30:11;;;;;;;21.40;16.40;;;;;;;5.15;100.00;99139.61;3036337;77;21055;-66
2022/11/17 06:34:12;;;;;;;21.30;15.32;;;;;;;5.15;100.00;99134.33;3003241;77;21074;-65
2022/11/17 06:38:14;;;;;;;21.12;11.45;;;;;;;5.10;100.00;99148.83;3011150;78;21042;-65
2022/11/17 06:42:15;;;;;;;16.40;14.33;;;;;;;5.12;100.00;99150.39;2951319;78;21030;-65
2022/11/17 06:46:21;;;;;;;24.45;17.35;;;;;;;5.14;100.00;99150.29;2945409;79;21030;-65
2022/11/17 06:50:33;;;;;;;22.48;17.75;;;;;;;5.17;100.00;99143.45;2929705;80;21021;-65
2022/11/17 06:54:34;;;;;;;23.42;17.55;;;;;;;5.21;100.00;99147.98;2956643;79;21060;-65
2022/11/17 06:58:39;;;;;;;23.38;15.53;;;;;;;5.28;100.00;99155.30;2911467;80;20996;-64
2022/11/17 07:02:40;;;;;;;23.80;17.00;;;;;;;5.29;100.00;99154.84;3000244;78;21035;-64
2022/11/17 07:06:43;;;;;;;19.70;16.17;;;;;;;5.33;100.00;99149.68;3025113;77;20987;-65
2022/11/17 07:10:53;;;;;;;23.12;15.85;;;;;;;5.35;100.00;99154.84;2958689;76;20976;-65
2022/11/17 07:14:52;;;;;;;20.55;14.55;;;;;;;5.36;100.00;99153.39;3066667;76;20985;-64
2022/11/17 07:18:53;;;;;;;19.10;15.05;;;;;;;5.31;100.00;99152.92;3049018;76;21012;-64
2022/11/17 07:22:59;;;;;;;19.37;14.70;;;;;;;5.29;100.00;99147.75;3044217;76;21011;-65
2022/11/17 07:27:00;;;;;;;24.07;17.15;;;;;;;5.31;100.00;99152.09;3016310;77;20963;-64
2022/11/17 07:31:07;;;;;;;24.82;15.63;;;;;;;5.31;100.00;99146.83;3028892;77;20987;-64
2022/11/17 07:35:09;;;;;;;30.27;22.60;;;;;;;5.29;100.00;99142.97;3054473;76;21017;-64
2022/11/17 07:39:11;;;;;;;21.48;15.30;;;;;;;5.32;100.00;99141.41;2991578;77;20979;-64
2022/11/17 07:43:12;;;;;;;21.57;15.05;;;;;;;5.31;100.00;99141.55;2982520;77;21019;-64
2022/11/17 07:47:13;;;;;;;20.68;15.28;;;;;;;5.34;100.00;99143.94;3021488;77;20987;-65
2022/11/17 07:51:16;;;;;;;19.50;14.23;;;;;;;5.37;100.00;99142.38;3001904;77;21135;-64
2022/11/17 07:55:18;;;;;;;19.82;14.18;;;;;;;5.31;100.00;99139.73;3025106;76;21019;-64
2022/11/17 07:59:20;;;;;;;19.60;13.28;;;;;;;5.36;100.00;99136.74;2981545;78;21028;-64
2022/11/17 08:03:21;;;;;;;21.73;13.72;;;;;;;5.33;100.00;99139.13;2886353;80;21086;-64
2022/11/17 08:07:23;;;;;;;16.35;12.10;;;;;;;5.35;100.00;99137.20;2920147;79;21638;-64
2022/11/17 08:11:24;;;;;;;20.77;13.78;;;;;;;5.35;100.00;99132.43;2912700;80;21011;-64
2022/11/17 08:15:28;;;;;;;19.35;13.20;;;;;;;5.35;100.00;99137.70;2914383;79;21075;-64
2022/11/17 08:19:29;;;;;;;16.02;13.10;;;;;;;5.44;100.00;99135.65;2989971;78;20988;-64
2022/11/17 08:23:31;;;;;;;20.17;15.20;;;;;;;5.49;100.00;99141.39;2916319;79;21483;-64
2022/11/17 08:27:33;;;;;;;18.07;14.68;;;;;;;5.51;100.00;99143.45;2977012;78;20976;-64
2022/11/17 08:31:35;;;;;;;19.67;12.65;;;;;;;5.55;100.00;99144.88;2971379;78;21883;-64
2022/11/17 08:35:36;;;;;;;21.42;12.65;;;;;;;5.51;100.00;99129.41;2974131;79;21094;-63
2022/11/17 08:39:37;;;;;;;18.80;13.78;;;;;;;5.48;100.00;99126.52;2897208;80;21012;-63
2022/11/17 08:43:39;;;;;;;18.55;12.18;;;;;;;5.47;100.00;99126.66;2973938;78;21011;-63
2022/11/17 08:47:40;;;;;;;17.05;12.47;;;;;;;5.38;100.00;99119.82;2978014;77;21089;-63
2022/11/17 08:51:47;;;;;;;17.30;12.85;;;;;;;5.39;100.00;99126.77;2998057;78;20964;-62
2022/11/17 08:55:50;;;;;;;17.42;10.28;;;;;;;5.43;100.00;99127.38;2987373;77;20960;-63
2022/11/17 09:00:03;;;;;;;14.07;10.65;;;;;;;5.50;100.00;99140.45;2968256;78;20964;-62
2022/11/17 09:04:05;;;;;;;15.13;11.35;;;;;;;5.49;100.00;99138.75;2981990;78;21021;-63
2022/11/17 09:08:12;;;;;;;17.27;11.57;;;;;;;5.41;100.00;99148.62;2943774;78;20933;-63
2022/11/17 09:12:15;;;;;;;13.98;10.53;;;;;;;5.46;100.00;99148.23;2933091;78;20987;-62
2022/11/17 09:16:35;;;;;;;14.78;10.30;;;;;;;5.49;100.00;99144.03;2930904;79;20947;-63
2022/11/17 09:20:37;;;;;;;15.00;10.68;;;;;;;5.46;100.00;99145.59;2906994;79;20971;-63
2022/11/17 09:24:38;;;;;;;12.65;9.50;;;;;;;5.51;100.00;99151.83;2919904;80;21023;-63
2022/11/17 09:28:40;;;;;;;14.47;9.83;;;;;;;5.50;100.00;99148.37;2897303;80;21022;-62
2022/11/17 09:32:42;;;;;;;13.93;10.28;;;;;;;5.52;100.00;99149.09;2925937;80;21011;-63
2022/11/17 09:36:43;;;;;;;14.38;10.60;;;;;;;5.51;100.00;99148.73;2885063;80;21012;-63
2022/11/17 09:40:45;;;;;;;14.60;9.68;;;;;;;5.55;100.00;99147.52;2935977;79;21087;-62
2022/11/17 09:44:54;;;;;;;13.45;9.45;;;;;;;5.61;100.00;99150.16;2888706;79;21040;-63
2022/11/17 09:49:27;;;;;;;19.67;10.28;;;;;;;5.66;100.00;99156.37;2979492;77;20999;-61
2022/11/17 09:53:44;;;;;;;12.90;10.00;;;;;;;5.67;100.00;99157.58;2947843;79;21090;-63
2022/11/17 09:57:57;;;;;;;14.53;8.80;;;;;;;5.57;100.00;99156.61;2946414;78;20960;-63
2022/11/17 10:01:58;;;;;;;10.95;8.80;;;;;;;5.46;100.00;99156.14;2972894;78;20987;-62
2022/11/17 10:06:09;;;;;;;12.50;8.10;;;;;;;5.40;100.00;99156.17;2967705;79;21088;-62
2022/11/17 10:10:40;;;;;;;11.05;7.33;;;;;;;5.34;100.00;99142.13;2933137;79;20944;-61
2022/11/17 10:14:41;;;;;;;10.70;8.63;;;;;;;5.40;100.00;99143.45;2940669;79;20976;-63
2022/11/17 10:18:43;;;;;;;11.70;8.38;;;;;;;5.38;100.00;99137.45;2916216;80;21036;-62
2022/11/17 10:22:53;;;;;;;9.45;7.17;;;;;;;5.35;100.00;99135.06;2937575;80;20966;-63
2022/11/17 10:26:54;;;;;;;10.82;7.67;;;;;;;5.35;100.00;99144.30;2912154;79;20987;-62
2022/11/17 10:31:17;;;;;;;15.78;8.30;;;;;;;5.33;100.00;99141.77;2958230;78;20979;-61
2022/11/17 10:35:33;;;;;;;13.25;7.75;;;;;;;5.29;100.00;99131.93;3045705;76;20998;-64
2022/11/17 10:39:40;;;;;;;11.03;8.40;;;;;;;5.34;100.00;99135.53;3011800;77;20951;-61
2022/11/17 10:44:05;;;;;;;;;;;;;;;5.40;100.00;99139.49;3005049;77;20977;-61
2022/11/17 10:48:18;;;;;;;13.30;9.10;;;;;;;5.42;100.00;99134.47;2988823;76;20161;-60
2022/11/17 10:52:22;;;;;;;14.30;9.28;;;;;;;5.46;100.00;99127.62;3038234;76;20902;-60
2022/11/17 10:56:24;;;;;;;11.33;8.23;;;;;;;5.42;100.00;99119.11;3077148;76;21069;-61
2022/11/17 11:00:34;;;;;;;9.55;8.43;;;;;;;5.46;100.00;99117.08;3036961;76;20976;-62
2022/11/17 11:04:40;;;;;;;9.10;6.72;;;;;;;5.44;100.00;99111.91;3052825;76;20952;-60
2022/11/17 11:08:59;;;;;;;14.10;8.48;;;;;;;5.45;100.00;99112.77;3010972;76;21002;-61
2022/11/17 11:13:12;;;;;;;9.38;7.47;;;;;;;5.52;100.00;99114.80;3081460;75;20967;-60
2022/11/17 11:17:26;;;;;;;9.45;7.72;;;;;;;5.52;100.00;99104.24;3076979;75;21065;-60
2022/11/17 11:22:09;;;;;;;8.73;5.78;;;;;;;5.58;100.00;99107.70;3020781;76;21006;-59
2022/11/17 11:26:37;;;;;;;7.03;4.97;;;;;;;5.54;100.00;99115.51;3031764;77;20951;-60
2022/11/17 11:31:06;;;;;;;10.50;6.50;;;;;;;5.57;100.00;99121.85;3066607;76;20955;-60
2022/11/17 11:36:02;;;;;;;16.27;9.35;;;;;;;5.61;100.00;99125.56;2930767;78;20999;-59
2022/11/17 11:40:26;;;;;;;12.35;9.58;;;;;;;5.65;100.00;99129.16;2957225;79;21055;-59
2022/11/17 11:45:10;;;;;;;10.68;9.50;;;;;;;5.70;100.00;99138.03;2988489;77;20972;-59
2022/11/17 11:49:35;;;;;;;11.97;8.68;;;;;;;5.68;100.00;99138.61;3009727;78;20995;-60
2022/11/17 11:53:57;;;;;;;9.28;8.30;;;;;;;5.67;100.00;99139.57;3014868;77;21018;-58
2022/11/17 11:58:12;;;;;;;7.78;6.97;;;;;;;5.63;100.00;99142.10;3053765;76;20974;-58
2022/11/17 12:02:45;;;;;;;10.35;6.55;;;;;;;5.58;100.00;99150.38;3064394;76;21019;-60
2022/11/17 12:06:52;;;;;;;6.53;5.00;;;;;;;5.55;100.00;99150.16;2986185;79;20978;-59
2022/11/17 12:10:59;;;;;;;12.33;6.25;;;;;;;5.38;100.00;99138.28;2969566;78;20995;-60
2022/11/17 12:15:21;;;;;;;8.58;6.70;;;;;;;5.40;100.00;99150.04;2926184;80;21000;-59
2022/11/17 12:19:52;;;;;;;7.80;7.10;;;;;;;5.38;100.00;99141.42;2917883;80;21480;-60
2022/11/17 12:24:11;;;;;;;10.90;9.05;;;;;;;5.31;100.00;99141.55;2890847;80;20995;-59
2022/11/17 12:28:37;;;;;;;12.03;7.67;;;;;;;5.28;100.00;99131.57;2957798;79;20975;-59
2022/11/17 12:32:51;;;;;;;14.10;9.53;;;;;;;5.36;100.00;99131.47;2927034;79;20962;-59
2022/11/17 12:37:19;;;;;;;7.75;6.17;;;;;;;5.35;100.00;99136.39;2927775;78;21081;-59
2022/11/17 12:41:52;;;;;;;21.12;10.70;;;;;;;5.31;100.00;99126.55;2958683;78;21011;-60
2022/11/17 12:46:05;;;;;;;27.22;15.88;;;;;;;5.28;100.00;99126.30;2917511;79;21047;-60
2022/11/17 12:50:29;;;;;;;24.77;12.70;;;;;;;5.26;100.00;99112.41;2945342;79;21573;-58
2022/11/17 12:54:44;;;;;;;59.93;24.80;;;;;;;5.22;100.00;99109.66;2874213;80;21002;-59
2022/11/17 12:59:14;;;;;;;35.50;16.93;;;;;;;5.20;100.00;99108.08;2910047;80;21017;-59
2022/11/17 13:03:20;;;;;;;27.02;15.70;;;;;;;5.13;100.00;99103.30;2901010;79;20984;-59
2022/11/17 13:07:24;;;;;;;;;;;;;;;5.07;100.00;99100.30;2947992;79;21035;-59
2022/11/17 13:11:26;;;;;;;36.83;20.43;;;;;;;5.04;100.00;99092.17;2943740;78;20088;-58
2022/11/17 13:15:29;;;;;;;18.00;12.82;;;;;;;5.04;100.00;99092.64;2891811;80;21007;-58
2022/11/17 13:19:40;;;;;;;23.07;14.75;;;;;;;5.04;100.00;99082.09;2903818;78;21103;-57
2022/11/17 13:23:44;;;;;;;18.55;13.10;;;;;;;5.03;100.00;99083.05;3040931;76;20959;-59
2022/11/17 13:27:46;;;;;;;16.50;9.48;;;;;;;5.00;100.00;99071.80;3097629;76;21077;-59
2022/11/17 13:31:47;;;;;;;13.15;9.83;;;;;;;5.02;100.00;99069.05;3058740;75;21014;-59
2022/11/17 13:36:09;;;;;;;20.80;12.47;;;;;;;5.01;100.00;99075.25;3000372;76;20983;-61
2022/11/17 13:40:21;;;;;;;16.30;10.10;;;;;;;5.02;100.00;99073.47;3008903;76;20994;-60
2022/11/17 13:44:26;;;;;;;10.60;8.78;;;;;;;4.91;100.00;99072.50;2990180;77;21026;-58
2022/11/17 13:48:45;;;;;;;11.63;8.48;;;;;;;4.93;100.00;99067.97;2911020;78;73510;-87
2022/11/17 13:53:09;;;;;;;8.63;7.67;;;;;;;4.88;100.00;99067.47;2915767;78;21109;-87
2022/11/17 13:57:22;;;;;;;8.33;7.47;;;;;;;4.86;100.00;99079.92;2928211;77;21410;-87
2022/11/17 14:01:31;;;;;;;13.28;8.85;;;;;;;4.82;100.00;99062.69;2943495;77;21456;-87
2022/11/17 14:05:33;;;;;;;13.48;8.85;;;;;;;4.84;100.00;99055.50;2921176;77;21015;-87
2022/11/17 14:09:35;;;;;;;10.88;9.30;;;;;;;4.84;100.00;99048.45;2957681;77;20990;-87
2022/11/17 14:13:41;;;;;;;7.65;6.65;;;;;;;4.82;100.00;99053.00;2939775;77;21011;-87
2022/11/17 14:17:54;;;;;;;9.75;8.40;;;;;;;4.83;100.00;99060.41;2961172;77;21057;-87
2022/11/17 14:22:09;;;;;;;12.30;7.80;;;;;;;4.86;100.00;99073.34;2950540;78;21569;-86
2022/11/17 14:26:21;;;;;;;11.20;9.33;;;;;;;4.89;100.00;99078.37;2971209;77;21014;-87
2022/11/17 14:30:22;;;;;;;9.43;6.85;;;;;;;4.90;100.00;99085.31;2819595;81;20997;-89
2022/11/17 14:34:24;;;;;;;9.48;7.00;;;;;;;4.87;99.24;99097.41;2893948;79;21002;-87
2022/11/17 14:38:26;;;;;;;11.85;8.65;;;;;;;4.88;100.00;99090.36;2888525;79;21063;-88
2022/11/17 14:42:27;;;;;;;13.15;9.05;;;;;;;4.85;99.50;99079.57;2861446;79;21497;-88
2022/11/17 14:46:28;;;;;;;9.90;8.00;;;;;;;4.85;98.93;99088.33;2915099;79;21046;-87
2022/11/17 14:50:29;;;;;;;8.80;7.53;;;;;;;4.81;98.62;99082.09;2925065;78;21008;-87
2022/11/17 14:54:31;;;;;;;9.83;7.53;;;;;;;4.80;98.39;99077.78;2911020;77;21628;-87
2022/11/17 14:58:36;;;;;;;10.45;7.65;;;;;;;4.81;98.80;99072.87;2919264;78;20971;-88
2022/11/17 15:02:36;;;;;;;11.20;8.63;;;;;;;4.85;99.37;99071.20;2817348;79;20979;-88
2022/11/17 15:06:38;;;;;;;11.95;9.25;;;;;;;4.87;100.00;99071.06;2967927;77;21521;-88
2022/11/17 15:10:44;;;;;;;14.10;10.08;;;;;;;4.83;99.75;99067.00;2925782;77;20999;-87
2022/11/17 15:14:49;;;;;;;14.78;11.45;;;;;;;4.81;99.58;99068.91;2977342;77;21019;-87
2022/11/17 15:18:50;;;;;;;11.20;9.75;;;;;;;4.71;100.00;99059.07;2935583;77;21034;-87
2022/11/17 15:22:52;;;;;;;11.22;8.78;;;;;;;4.68;100.00;99056.67;2952478;77;21113;-88
2022/11/17 15:26:53;;;;;;;13.60;8.65;;;;;;;4.67;100.00;99058.95;2957666;77;21583;-88
2022/11/17 15:30:54;;;;;;;11.05;8.60;;;;;;;4.57;98.74;99084.34;2925514;77;21037;-88
2022/11/17 15:34:55;;;;;;;11.63;7.78;;;;;;;4.58;98.98;99084.20;2968206;77;20960;-88
2022/11/17 15:38:57;;;;;;;18.15;9.60;;;;;;;4.61;99.96;99077.88;2936809;78;21585;-88
2022/11/17 15:42:58;;;;;;;10.03;7.60;;;;;;;4.64;99.75;99078.13;2967622;77;20967;-88
2022/11/17 15:47:00;;;;;;;8.58;6.95;;;;;;;4.56;98.57;99071.63;2952307;78;20955;-88
2022/11/17 15:51:02;;;;;;;10.75;7.35;;;;;;;4.56;98.29;99061.59;2957260;78;21540;-88
2022/11/17 15:55:08;;;;;;;9.50;8.35;;;;;;;4.53;97.64;99073.69;2974423;78;21092;-88
2022/11/17 15:59:10;;;;;;;15.18;9.35;;;;;;;4.54;97.45;99077.99;2979382;77;21530;-87
2022/11/17 16:03:12;;;;;;;11.93;8.28;;;;;;;4.56;98.00;99082.66;2943045;77;21019;-89
2022/11/17 16:07:13;;;;;;;13.18;9.63;;;;;;;4.61;98.22;99076.55;2936039;77;20927;-88
2022/11/17 16:11:14;;;;;;;11.28;8.40;;;;;;;4.57;98.41;99078.58;2947285;76;21443;-88
2022/11/17 16:15:16;;;;;;;11.25;8.85;;;;;;;4.54;97.60;99067.45;2940976;78;21032;-89
2022/11/17 16:19:17;;;;;;;16.62;9.85;;;;;;;4.56;98.80;99061.59;2997833;75;21032;-88
2022/11/17 16:23:19;;;;;;;11.80;10.03;;;;;;;4.46;97.34;99066.72;2989777;76;21010;-88
2022/11/17 16:27:20;;;;;;;13.68;10.63;;;;;;;4.50;98.29;99064.67;2984326;77;21493;-88
2022/11/17 16:31:28;;;;;;;12.90;10.20;;;;;;;4.47;99.00;99047.80;2980242;77;20999;-88
2022/11/17 16:35:30;;;;;;;15.13;10.48;;;;;;;4.41;98.55;99052.58;2973705;77;21023;-88
2022/11/17 16:39:31;;;;;;;12.05;10.08;;;;;;;4.44;98.69;99063.37;2939402;77;21018;-88
2022/11/17 16:43:53;;;;;;;15.48;12.33;;;;;;;4.50;98.10;99072.11;3190601;73;22348;-87
2022/11/17 16:47:55;;;;;;;11.57;10.32;;;;;;;4.42;97.72;99070.05;3045519;77;21318;-87
2022/11/17 16:51:56;;;;;;;14.15;8.50;;;;;;;4.40;97.89;99068.02;3041950;76;21486;-87
2022/11/17 16:56:03;;;;;;;17.30;10.65;;;;;;;4.47;98.78;99071.49;3073063;76;21029;-87
2022/11/17 17:00:07;;;;;;;12.53;8.68;;;;;;;4.45;98.05;99071.63;3061354;75;21010;-87
2022/11/17 17:04:10;;;;;;;13.68;9.48;;;;;;;4.40;97.28;99083.81;3064763;76;21026;-87
2022/11/17 17:08:12;;;;;;;14.55;10.28;;;;;;;4.41;97.98;99081.55;3048556;75;21035;-87
2022/11/17 17:12:14;;;;;;;12.73;10.35;;;;;;;4.37;97.93;99080.11;3052219;77;20962;-87
2022/11/17 17:16:18;;;;;;;12.70;11.05;;;;;;;4.40;97.72;99090.86;3036828;75;21475;-87
2022/11/17 17:20:20;;;;;;;13.18;11.75;;;;;;;4.39;98.10;99082.14;3050052;76;21028;-87
2022/11/17 17:24:21;;;;;;;20.60;12.03;;;;;;;4.41;97.71;99081.55;3072167;76;21042;-87
2022/11/17 17:28:22;;;;;;;13.28;11.15;;;;;;;4.40;97.45;99079.87;3076409;75;22485;-87
2022/11/17 17:32:24;;;;;;;18.45;12.73;;;;;;;4.33;97.29;99090.52;3072851;76;20992;-87
2022/11/17 17:36:26;;;;;;;26.23;13.88;;;;;;;4.25;97.42;99084.50;3050357;77;20983;-86
2022/11/17 17:40:28;;;;;;;14.85;10.68;;;;;;;4.26;97.95;99081.38;3042928;75;22274;-87
2022/11/17 17:44:29;;;;;;;24.67;13.85;;;;;;;4.26;98.27;99086.18;3038168;76;21028;-87
2022/11/17 17:48:33;;;;;;;15.63;12.23;;;;;;;4.23;98.57;99080.30;3045661;77;21365;-87
2022/11/17 17:52:36;;;;;;;17.75;13.05;;;;;;;4.21;99.11;99070.36;3043586;76;21000;-87
2022/11/17 17:56:38;;;;;;;16.12;12.75;;;;;;;4.18;98.93;99067.47;3032453;76;20999;-86
2022/11/17 18:00:46;;;;;;;14.58;11.33;;;;;;;4.20;98.85;99067.37;3029738;76;21483;-87
2022/11/17 18:04:47;;;;;;;17.23;12.50;;;;;;;4.20;98.25;99072.63;3017848;76;21515;-88
2022/11/17 18:08:49;;;;;;;18.00;10.40;;;;;;;4.17;98.78;99069.74;3022951;76;20979;-87
2022/11/17 18:12:51;;;;;;;14.73;10.85;;;;;;;4.09;98.07;99062.41;2997098;76;21618;-88
2022/11/17 18:16:52;;;;;;;15.48;11.22;;;;;;;4.07;97.73;99065.64;3050171;76;20984;-87
2022/11/17 18:21:04;;;;;;;11.15;7.92;;;;;;;4.13;98.19;99074.41;2993613;76;20949;-90
2022/11/17 18:25:06;;;;;;;15.72;9.55;;;;;;;4.04;97.40;99071.14;3061271;76;20988;-89
2022/11/17 18:29:14;;;;;;;10.35;8.08;;;;;;;4.07;97.83;99077.98;3057077;75;21054;-89
2022/11/17 18:33:16;;;;;;;13.65;10.58;;;;;;;4.00;97.12;99068.38;3026959;76;21062;-89
2022/11/17 18:37:17;;;;;;;11.78;9.85;;;;;;;4.04;97.43;99063.24;3052926;76;21011;-89
2022/11/17 18:41:20;;;;;;;15.68;12.60;;;;;;;4.01;96.65;99059.53;3052871;76;21003;-88
2022/11/17 18:45:21;;;;;;;14.87;10.98;;;;;;;4.04;96.46;99075.09;3052437;76;21026;-87
2022/11/17 18:49:22;;;;;;;12.93;9.30;;;;;;;4.02;95.99;99078.77;3046265;76;21002;-86
2022/11/17 18:53:24;;;;;;;11.28;9.40;;;;;;;4.01;96.11;99067.42;3042565;76;20987;-87
2022/11/17 18:57:26;;;;;;;11.03;9.90;;;;;;;4.07;96.36;99080.12;3044149;75;21423;-88
2022/11/17 19:01:29;;;;;;;11.95;8.70;;;;;;;4.05;95.66;99078.08;3031622;76;21008;-88
2022/11/17 19:05:35;;;;;;;12.75;10.18;;;;;;;3.98;94.28;99076.86;2968333;77;21026;-88
2022/11/17 19:09:36;;;;;;;9.70;8.03;;;;;;;3.98;94.40;99080.81;2909419;80;20974;-88
2022/11/17 19:13:40;;;;;;;9.15;7.55;;;;;;;4.01;94.71;99072.69;2999670;77;21581;-90
2022/11/17 19:17:41;;;;;;;10.18;8.50;;;;;;;3.96;94.21;99070.87;3003249;77;20975;-89
2022/11/17 19:21:43;;;;;;;10.03;8.38;;;;;;;3.96;94.14;99062.49;3043289;77;21023;-87
2022/11/17 19:25:45;;;;;;;9.98;6.62;;;;;;;3.93;93.86;99070.62;2988798;77;21040;-89
2022/11/17 19:29:47;;;;;;;11.20;7.70;;;;;;;3.98;93.51;99070.28;3000629;77;21560;-89
2022/11/17 19:33:49;;;;;;;12.35;8.20;;;;;;;4.02;93.89;99069.09;3004717;77;21019;-89
2022/11/17 19:37:51;;;;;;;13.48;8.30;;;;;;;3.98;93.50;99067.66;3031116;77;21019;-88